createdAt,value
2022-11-20T00:00:17.174Z,94952
2022-11-20T00:01:26.875Z,94953
2022-11-20T00:02:36.576Z,94950
2022-11-20T00:03:46.269Z,94951
2022-11-20T00:04:55.968Z,94956
2022-11-20T00:06:03.635Z,94953
2022-11-20T00:07:12.385Z,94957
2022-11-20T00:08:21.089Z,94949
2022-11-20T00:09:30.753Z,94956
2022-11-20T00:10:40.453Z,94955
2022-11-20T00:11:49.151Z,94955
2022-11-20T00:12:58.826Z,94951
2022-11-20T00:14:08.529Z,94956
2022-11-20T00:15:17.195Z,94956
2022-11-20T00:16:26.895Z,94954
2022-11-20T00:17:36.589Z,94953
2022-11-20T00:18:46.321Z,94954
2022-11-20T00:19:55.962Z,94956
2022-11-20T00:21:03.631Z,94956
2022-11-20T00:22:13.356Z,94953
2022-11-20T00:23:23.033Z,94962
2022-11-20T00:24:30.698Z,94957
2022-11-20T00:25:40.392Z,94961
2022-11-20T00:26:50.067Z,94962
2022-11-20T00:27:58.892Z,94962
2022-11-20T00:29:08.429Z,94962
2022-11-20T00:30:17.131Z,94965
2022-11-20T00:31:26.831Z,94962
2022-11-20T00:32:36.532Z,94956
2022-11-20T00:33:46.233Z,94963
2022-11-20T00:34:55.930Z,94966
2022-11-20T00:36:04.596Z,94965
2022-11-20T00:37:13.317Z,94968
2022-11-20T00:38:22.991Z,94967
2022-11-20T00:39:30.658Z,94967
2022-11-20T00:40:39.363Z,94971
2022-11-20T00:41:49.093Z,94974
2022-11-20T00:42:58.877Z,94973
2022-11-20T00:44:06.614Z,94974
2022-11-20T00:45:16.398Z,94979
2022-11-20T00:46:25.148Z,94974
2022-11-20T00:47:34.778Z,94974
2022-11-20T00:48:44.475Z,94976
2022-11-20T00:49:53.140Z,94971
2022-11-20T00:51:01.856Z,94979
2022-11-20T00:52:11.519Z,94978
2022-11-20T00:53:21.199Z,94979
2022-11-20T00:54:28.885Z,94975
2022-11-20T00:55:37.563Z,94980
2022-11-20T00:56:47.219Z,94977
2022-11-20T00:57:56.887Z,94982
2022-11-20T00:59:07.563Z,94981
2022-11-20T01:00:15.410Z,94982
2022-11-20T01:01:25.298Z,94984
2022-11-20T01:02:34.736Z,94983
2022-11-20T01:03:42.384Z,94986
2022-11-20T01:04:52.062Z,94988
2022-11-20T01:06:00.768Z,94988
2022-11-20T01:07:10.479Z,94988
2022-11-20T01:08:20.206Z,94988
2022-11-20T01:09:29.876Z,94990
2022-11-20T01:10:38.539Z,94995
2022-11-20T01:11:48.256Z,94991
2022-11-20T01:12:55.918Z,94996
2022-11-20T01:14:05.589Z,94994
2022-11-20T01:15:14.254Z,94994
2022-11-20T01:16:23.920Z,94996
2022-11-20T01:17:33.643Z,94992
2022-11-20T01:18:41.326Z,94997
2022-11-20T01:19:50.976Z,94997
2022-11-20T01:21:00.650Z,94997
2022-11-20T01:22:09.362Z,94996
2022-11-20T01:23:19.057Z,94998
2022-11-20T01:24:27.732Z,94998
2022-11-20T01:25:37.387Z,94997
2022-11-20T01:26:47.070Z,94995
2022-11-20T01:27:56.741Z,94997
2022-11-20T01:29:05.419Z,94996
2022-11-20T01:30:15.131Z,94998
2022-11-20T01:31:23.778Z,94996
2022-11-20T01:32:32.473Z,94994
2022-11-20T01:33:41.130Z,94993
2022-11-20T01:34:50.830Z,95001
2022-11-20T01:36:00.507Z,95000
2022-11-20T01:37:09.181Z,95001
2022-11-20T01:38:16.837Z,95003
2022-11-20T01:39:26.534Z,95002
2022-11-20T01:40:35.282Z,95000
2022-11-20T01:41:43.964Z,95002
2022-11-20T01:42:52.641Z,95002
2022-11-20T01:44:01.341Z,95002
2022-11-20T01:45:11.003Z,95002
2022-11-20T01:46:19.793Z,95000
2022-11-20T01:47:28.456Z,94999
2022-11-20T01:48:38.142Z,95001
2022-11-20T01:49:45.824Z,95002
2022-11-20T01:50:53.491Z,95002
2022-11-20T01:52:02.293Z,95002
2022-11-20T01:53:11.963Z,95003
2022-11-20T01:54:21.645Z,95001
2022-11-20T01:55:29.347Z,95000
2022-11-20T01:56:38.003Z,95002
2022-11-20T01:57:47.703Z,95002
2022-11-20T01:58:57.389Z,95002
2022-11-20T02:00:06.054Z,94998
2022-11-20T02:01:14.765Z,95001
2022-11-20T02:02:23.386Z,94995
2022-11-20T02:03:33.319Z,95003
2022-11-20T02:04:42.985Z,94999
2022-11-20T02:05:52.662Z,94999
2022-11-20T02:07:02.462Z,94997
2022-11-20T02:08:12.056Z,94999
2022-11-20T02:09:20.996Z,94998
2022-11-20T02:10:30.459Z,94992
2022-11-20T02:11:40.149Z,94999
2022-11-20T02:12:49.866Z,94996
2022-11-20T02:13:58.528Z,94998
2022-11-20T02:15:07.356Z,94992
2022-11-20T02:16:17.099Z,94998
2022-11-20T02:17:25.815Z,95000
2022-11-20T02:18:35.518Z,95000
2022-11-20T02:19:44.157Z,94993
2022-11-20T02:20:52.836Z,94996
2022-11-20T02:22:02.506Z,94998
2022-11-20T02:23:11.171Z,95002
2022-11-20T02:24:20.921Z,95000
2022-11-20T02:25:30.586Z,94998
2022-11-20T02:26:38.304Z,95001
2022-11-20T02:27:46.961Z,95005
2022-11-20T02:28:55.629Z,95005
2022-11-20T02:30:04.291Z,95004
2022-11-20T02:31:13.963Z,95010
2022-11-20T02:32:22.640Z,95006
2022-11-20T02:33:31.307Z,95007
2022-11-20T02:34:40.970Z,95001
2022-11-20T02:35:49.637Z,95007
2022-11-20T02:36:58.315Z,95007
2022-11-20T02:38:08.014Z,95003
2022-11-20T02:39:15.709Z,95004
2022-11-20T02:40:25.400Z,95009
2022-11-20T02:41:35.069Z,95010
2022-11-20T02:42:43.746Z,95010
2022-11-20T02:43:53.451Z,95007
2022-11-20T02:45:01.112Z,95009
2022-11-20T02:46:09.779Z,95006
2022-11-20T02:47:19.477Z,95012
2022-11-20T02:48:31.363Z,95011
2022-11-20T02:49:37.996Z,95002
2022-11-20T02:50:47.680Z,95002
2022-11-20T02:51:56.352Z,95008
2022-11-20T02:53:06.031Z,95009
2022-11-20T02:54:14.707Z,95008
2022-11-20T02:55:23.424Z,95004
2022-11-20T02:56:33.187Z,95008
2022-11-20T02:57:40.866Z,95006
2022-11-20T02:58:50.552Z,95005
2022-11-20T03:00:00.242Z,95008
2022-11-20T03:01:09.994Z,95006
2022-11-20T03:02:19.623Z,95003
2022-11-20T03:03:28.319Z,95003
2022-11-20T03:04:38.031Z,95004
2022-11-20T03:05:47.705Z,95006
2022-11-20T03:06:56.650Z,95008
2022-11-20T03:08:05.238Z,95003
2022-11-20T03:09:13.921Z,95000
2022-11-20T03:10:22.580Z,94999
2022-11-20T03:11:32.264Z,94999
2022-11-20T03:12:40.994Z,94997
2022-11-20T03:13:49.695Z,95003
2022-11-20T03:14:59.374Z,94999
2022-11-20T03:16:08.104Z,95000
2022-11-20T03:17:17.784Z,94998
2022-11-20T03:18:24.446Z,94994
2022-11-20T03:19:34.117Z,95003
2022-11-20T03:20:42.778Z,94993
2022-11-20T03:21:51.432Z,94998
2022-11-20T03:23:01.099Z,94994
2022-11-20T03:24:08.780Z,94994
2022-11-20T03:25:17.439Z,94995
2022-11-20T03:26:27.122Z,94991
2022-11-20T03:27:35.796Z,94993
2022-11-20T03:28:44.444Z,94995
2022-11-20T03:29:53.157Z,94996
2022-11-20T03:31:02.827Z,94994
2022-11-20T03:32:12.508Z,94996
2022-11-20T03:33:21.188Z,95001
2022-11-20T03:34:29.853Z,94995
2022-11-20T03:35:39.549Z,95004
2022-11-20T03:36:49.220Z,95003
2022-11-20T03:37:58.914Z,95005
2022-11-20T03:39:07.603Z,95004
2022-11-20T03:40:16.265Z,95002
2022-11-20T03:41:25.948Z,95001
2022-11-20T03:42:35.629Z,95000
2022-11-20T03:43:44.289Z,94998
2022-11-20T03:44:53.952Z,94992
2022-11-20T03:46:02.626Z,94995
2022-11-20T03:47:12.319Z,95000
2022-11-20T03:48:21.009Z,94991
2022-11-20T03:49:29.741Z,94987
2022-11-20T03:50:39.412Z,94987
2022-11-20T03:51:49.135Z,94988
2022-11-20T03:52:57.846Z,94983
2022-11-20T03:54:07.517Z,94989
2022-11-20T03:55:16.193Z,94994
2022-11-20T03:56:24.882Z,94992
2022-11-20T03:57:34.552Z,94991
2022-11-20T03:58:43.225Z,94999
2022-11-20T03:59:52.904Z,94996
2022-11-20T04:01:02.559Z,94998
2022-11-20T04:02:10.279Z,94998
2022-11-20T04:03:19.892Z,95003
2022-11-20T04:04:29.584Z,94999
2022-11-20T04:05:39.275Z,95002
2022-11-20T04:06:47.932Z,95000
2022-11-20T04:07:56.608Z,95009
2022-11-20T04:09:06.271Z,95006
2022-11-20T04:10:14.061Z,95003
2022-11-20T04:11:23.730Z,95008
2022-11-20T04:12:32.388Z,95007
2022-11-20T04:13:41.035Z,95011
2022-11-20T04:14:50.713Z,95006
2022-11-20T04:15:59.410Z,95012
2022-11-20T04:17:09.091Z,95012
2022-11-20T04:18:18.752Z,95003
2022-11-20T04:19:28.416Z,95005
2022-11-20T04:20:37.071Z,95006
2022-11-20T04:21:46.757Z,95000
2022-11-20T04:22:55.434Z,95006
2022-11-20T04:24:04.099Z,95007
2022-11-20T04:25:13.792Z,95006
2022-11-20T04:26:22.456Z,95007
2022-11-20T04:27:31.140Z,95014
2022-11-20T04:28:39.819Z,95007
2022-11-20T04:29:49.485Z,95004
2022-11-20T04:30:59.160Z,95010
2022-11-20T04:32:08.838Z,95006
2022-11-20T04:33:17.572Z,95005
2022-11-20T04:34:26.244Z,95013
2022-11-20T04:35:34.893Z,95010
2022-11-20T04:36:44.662Z,95007
2022-11-20T04:37:53.325Z,95006
2022-11-20T04:39:01.994Z,95006
2022-11-20T04:40:12.643Z,95006
2022-11-20T04:41:22.306Z,95003
2022-11-20T04:42:31.096Z,95004
2022-11-20T04:43:40.943Z,95002
2022-11-20T04:44:49.617Z,95003
2022-11-20T04:45:59.285Z,95004
2022-11-20T04:47:07.959Z,95003
2022-11-20T04:48:16.629Z,95006
2022-11-20T04:49:26.364Z,95002
2022-11-20T04:50:35.004Z,95005
2022-11-20T04:51:43.678Z,94999
2022-11-20T04:52:53.351Z,95008
2022-11-20T04:54:02.004Z,95003
2022-11-20T04:55:11.675Z,95004
2022-11-20T04:56:20.352Z,95003
2022-11-20T04:57:29.025Z,95007
2022-11-20T04:58:38.703Z,95002
2022-11-20T04:59:47.380Z,95004
2022-11-20T05:00:57.046Z,94999
2022-11-20T05:02:06.801Z,95002
2022-11-20T05:03:16.541Z,95002
2022-11-20T05:04:26.254Z,95004
2022-11-20T05:05:35.937Z,95003
2022-11-20T05:06:45.596Z,94999
2022-11-20T05:07:55.289Z,95004
2022-11-20T05:09:02.941Z,94995
2022-11-20T05:10:12.623Z,94997
2022-11-20T05:11:21.285Z,95002
2022-11-20T05:12:30.974Z,94999
2022-11-20T05:13:40.811Z,94998
2022-11-20T05:14:48.471Z,95004
2022-11-20T05:15:58.127Z,95003
2022-11-20T05:17:07.784Z,95000
2022-11-20T05:18:16.441Z,95003
2022-11-20T05:19:25.158Z,94998
2022-11-20T05:20:33.812Z,95000
2022-11-20T05:21:42.470Z,95002
2022-11-20T05:22:51.123Z,95002
2022-11-20T05:23:59.781Z,95007
2022-11-20T05:25:09.513Z,95003
2022-11-20T05:26:18.193Z,95004
2022-11-20T05:27:26.860Z,95005
2022-11-20T05:28:36.535Z,95007
2022-11-20T05:29:45.190Z,95007
2022-11-20T05:30:54.884Z,95010
2022-11-20T05:32:03.555Z,95007
2022-11-20T05:33:12.228Z,95010
2022-11-20T05:34:21.895Z,95005
2022-11-20T05:35:29.565Z,95012
2022-11-20T05:36:39.250Z,95007
2022-11-20T05:37:49.905Z,95012
2022-11-20T05:39:01.679Z,95009
2022-11-20T05:40:08.221Z,95010
2022-11-20T05:41:17.861Z,95008
2022-11-20T05:42:27.554Z,95012
2022-11-20T05:43:37.220Z,95011
2022-11-20T05:44:46.891Z,95010
2022-11-20T05:45:55.550Z,95011
2022-11-20T05:47:05.215Z,95014
2022-11-20T05:48:14.543Z,95011
2022-11-20T05:49:23.433Z,95013
2022-11-20T05:50:31.879Z,95013
2022-11-20T05:51:41.544Z,95017
2022-11-20T05:52:51.198Z,95023
2022-11-20T05:54:00.906Z,95021
2022-11-20T05:55:09.567Z,95023
2022-11-20T05:56:19.233Z,95015
2022-11-20T05:57:26.880Z,95019
2022-11-20T05:58:35.537Z,95019
2022-11-20T05:59:43.217Z,95025
2022-11-20T06:00:52.872Z,95024
2022-11-20T06:02:02.549Z,95022
2022-11-20T06:03:11.216Z,95024
2022-11-20T06:04:20.873Z,95020
2022-11-20T06:05:30.550Z,95017
2022-11-20T06:06:39.210Z,95010
2022-11-20T06:07:48.897Z,95016
2022-11-20T06:08:58.551Z,95019
2022-11-20T06:10:08.210Z,95021
2022-11-20T06:11:17.916Z,95019
2022-11-20T06:12:26.559Z,95014
2022-11-20T06:13:40.725Z,95017
2022-11-20T06:14:45.855Z,95021
2022-11-20T06:15:54.505Z,95019
2022-11-20T06:17:03.292Z,95018
2022-11-20T06:18:11.982Z,95016
2022-11-20T06:19:21.778Z,95019
2022-11-20T06:20:31.292Z,95012
2022-11-20T06:21:41.938Z,95014
2022-11-20T06:22:50.622Z,95019
2022-11-20T06:24:00.400Z,95015
2022-11-20T06:25:10.074Z,95019
2022-11-20T06:26:18.740Z,95017
2022-11-20T06:27:28.402Z,95014
2022-11-20T06:28:38.079Z,95016
2022-11-20T06:29:47.746Z,95015
2022-11-20T06:30:56.428Z,95017
2022-11-20T06:32:06.105Z,95017
2022-11-20T06:33:15.765Z,95011
2022-11-20T06:34:25.557Z,95018
2022-11-20T06:35:34.251Z,95014
2022-11-20T06:36:43.024Z,95016
2022-11-20T06:37:51.667Z,95012
2022-11-20T06:39:01.331Z,95017
2022-11-20T06:40:09.000Z,95021
2022-11-20T06:41:18.667Z,95019
2022-11-20T06:42:28.329Z,95017
2022-11-20T06:43:36.997Z,95028
2022-11-20T06:44:45.652Z,95028
2022-11-20T06:45:54.346Z,95028
2022-11-20T06:47:04.011Z,95033
2022-11-20T06:48:13.680Z,95035
2022-11-20T06:49:22.583Z,95032
2022-11-20T06:50:32.999Z,95038
2022-11-20T06:51:42.680Z,95039
2022-11-20T06:52:50.325Z,95038
2022-11-20T06:53:58.982Z,95038
2022-11-20T06:55:07.644Z,95045
2022-11-20T06:56:17.306Z,95045
2022-11-20T06:57:27.011Z,95048
2022-11-20T06:58:35.692Z,95047
2022-11-20T06:59:45.367Z,95047
2022-11-20T07:00:55.077Z,95048
2022-11-20T07:02:03.696Z,95045
2022-11-20T07:03:13.365Z,95059
2022-11-20T07:04:23.029Z,95050
2022-11-20T07:05:31.674Z,95056
2022-11-20T07:06:42.336Z,95052
2022-11-20T07:07:48.979Z,95053
2022-11-20T07:08:57.656Z,95053
2022-11-20T07:10:08.323Z,95057
2022-11-20T07:11:15.972Z,95056
2022-11-20T07:12:25.637Z,95056
2022-11-20T07:13:35.301Z,95049
2022-11-20T07:14:45.011Z,95054
2022-11-20T07:15:54.690Z,95057
2022-11-20T07:17:04.350Z,95054
2022-11-20T07:18:14.015Z,95058
2022-11-20T07:19:22.873Z,95059
2022-11-20T07:20:31.481Z,95058
2022-11-20T07:21:41.151Z,95058
2022-11-20T07:22:48.840Z,95051
2022-11-20T07:23:58.513Z,95055
2022-11-20T07:25:08.177Z,95055
2022-11-20T07:26:16.852Z,95061
2022-11-20T07:27:26.513Z,95061
2022-11-20T07:28:35.170Z,95059
2022-11-20T07:29:44.817Z,95058
2022-11-20T07:30:54.494Z,95063
2022-11-20T07:32:03.172Z,95064
2022-11-20T07:33:11.824Z,95067
2022-11-20T07:34:21.529Z,95065
2022-11-20T07:35:31.241Z,95065
2022-11-20T07:36:40.903Z,95065
2022-11-20T07:37:50.603Z,95065
2022-11-20T07:39:00.249Z,95062
2022-11-20T07:40:09.941Z,95062
2022-11-20T07:41:19.603Z,95060
2022-11-20T07:42:28.268Z,95057
2022-11-20T07:43:41.151Z,95059
2022-11-20T07:44:46.575Z,95053
2022-11-20T07:45:56.274Z,95059
2022-11-20T07:47:04.940Z,95065
2022-11-20T07:48:13.594Z,95063
2022-11-20T07:49:23.673Z,95060
2022-11-20T07:50:30.960Z,95060
2022-11-20T07:51:39.623Z,95072
2022-11-20T07:52:49.289Z,95057
2022-11-20T07:53:57.979Z,95057
2022-11-20T07:55:07.887Z,95056
2022-11-20T07:56:17.569Z,95068
2022-11-20T07:57:28.546Z,95056
2022-11-20T07:58:36.881Z,95062
2022-11-20T07:59:44.612Z,95060
2022-11-20T08:00:53.342Z,95066
2022-11-20T08:02:02.973Z,95067
2022-11-20T08:03:11.643Z,95066
2022-11-20T08:04:22.295Z,95069
2022-11-20T08:05:30.956Z,95066
2022-11-20T08:06:40.647Z,95066
2022-11-20T08:07:49.376Z,95071
2022-11-20T08:08:57.968Z,95066
2022-11-20T08:10:06.627Z,95067
2022-11-20T08:11:16.324Z,95065
2022-11-20T08:12:24.990Z,95071
2022-11-20T08:13:34.684Z,95066
2022-11-20T08:14:43.343Z,95062
2022-11-20T08:15:51.991Z,95072
2022-11-20T08:17:01.662Z,95068
2022-11-20T08:18:29.846Z,95064
2022-11-20T08:19:20.383Z,95062
2022-11-20T08:20:28.644Z,95065
2022-11-20T08:21:38.455Z,95069
2022-11-20T08:22:46.943Z,95067
2022-11-20T08:23:55.759Z,95073
2022-11-20T08:25:04.414Z,95072
2022-11-20T08:26:14.078Z,95078
2022-11-20T08:27:23.751Z,95075
2022-11-20T08:28:32.592Z,95078
2022-11-20T08:29:41.288Z,95077
2022-11-20T08:30:49.932Z,95082
2022-11-20T08:31:59.604Z,95085
2022-11-20T08:33:07.263Z,95083
2022-11-20T08:34:19.087Z,95081
2022-11-20T08:35:26.616Z,95078
2022-11-20T08:36:36.292Z,95081
2022-11-20T08:37:44.948Z,95081
2022-11-20T08:38:53.613Z,95082
2022-11-20T08:40:03.272Z,95081
2022-11-20T08:41:12.973Z,95079
2022-11-20T08:42:20.640Z,95086
2022-11-20T08:43:30.313Z,95084
2022-11-20T08:44:40.962Z,95072
2022-11-20T08:45:49.623Z,95077
2022-11-20T08:46:58.304Z,95076
2022-11-20T08:48:07.978Z,95078
2022-11-20T08:49:17.637Z,95086
2022-11-20T08:50:27.305Z,95081
2022-11-20T08:51:35.968Z,95070
2022-11-20T08:52:43.651Z,95073
2022-11-20T08:53:53.316Z,95075
2022-11-20T08:55:00.983Z,95078
2022-11-20T08:56:09.648Z,95077
2022-11-20T08:57:18.304Z,95077
2022-11-20T08:58:27.089Z,95077
2022-11-20T09:00:04.166Z,95074
2022-11-20T09:00:48.472Z,95079
2022-11-20T09:01:58.101Z,95077
2022-11-20T09:03:08.768Z,95077
2022-11-20T09:04:17.448Z,95078
2022-11-20T09:05:26.110Z,95076
2022-11-20T09:06:34.770Z,95074
2022-11-20T09:07:43.444Z,95084
2022-11-20T09:08:53.077Z,95084
2022-11-20T09:10:22.919Z,95082
2022-11-20T09:11:12.377Z,95074
2022-11-20T09:12:22.039Z,95075
2022-11-20T09:13:30.735Z,95070
2022-11-20T09:14:40.406Z,95069
2022-11-20T09:15:51.084Z,95077
2022-11-20T09:16:59.760Z,95067
2022-11-20T09:18:08.553Z,95064
2022-11-20T09:19:40.674Z,95065
2022-11-20T09:20:28.981Z,95062
2022-11-20T09:21:37.697Z,95068
2022-11-20T09:22:47.370Z,95071
2022-11-20T09:23:57.061Z,95066
2022-11-20T09:25:05.728Z,95065
2022-11-20T09:26:15.411Z,95068
2022-11-20T09:27:25.226Z,95072
2022-11-20T09:28:33.880Z,95065
2022-11-20T09:29:43.553Z,95068
2022-11-20T09:30:52.228Z,95069
2022-11-20T09:32:01.885Z,95069
2022-11-20T09:33:11.580Z,95065
2022-11-20T09:34:19.321Z,95069
2022-11-20T09:35:27.982Z,95071
2022-11-20T09:36:37.642Z,95068
2022-11-20T09:37:46.303Z,95061
2022-11-20T09:38:55.994Z,95063
2022-11-20T09:40:03.654Z,95065
2022-11-20T09:41:12.300Z,95065
2022-11-20T09:42:21.968Z,95065
2022-11-20T09:43:33.735Z,95067
2022-11-20T09:44:41.272Z,95063
2022-11-20T09:45:48.932Z,95068
2022-11-20T09:46:57.603Z,95063
2022-11-20T09:48:07.264Z,95065
2022-11-20T09:49:15.964Z,95057
2022-11-20T09:50:24.625Z,95057
2022-11-20T09:51:34.326Z,95056
2022-11-20T09:52:44.156Z,95053
2022-11-20T09:53:53.829Z,95058
2022-11-20T09:55:03.502Z,95061
2022-11-20T09:56:15.067Z,95064
2022-11-20T09:57:23.835Z,95055
2022-11-20T09:58:31.489Z,95045
2022-11-20T09:59:40.168Z,95048
2022-11-20T10:00:49.867Z,95041
2022-11-20T10:01:57.529Z,95045
2022-11-20T10:03:06.178Z,95045
2022-11-20T10:04:14.839Z,95041
2022-11-20T10:05:23.496Z,95044
2022-11-20T10:06:33.164Z,95040
2022-11-20T10:07:41.859Z,95043
2022-11-20T10:08:50.489Z,95042
2022-11-20T10:10:00.156Z,95043
2022-11-20T10:11:08.812Z,95041
2022-11-20T10:12:17.481Z,95040
2022-11-20T10:13:27.176Z,95043
2022-11-20T10:14:35.880Z,95045
2022-11-20T10:15:45.563Z,95040
2022-11-20T10:16:54.224Z,95038
2022-11-20T10:18:02.877Z,95030
2022-11-20T10:19:12.569Z,95030
2022-11-20T10:20:21.236Z,95031
2022-11-20T10:21:30.905Z,95027
2022-11-20T10:22:39.564Z,95032
2022-11-20T10:23:49.213Z,95028
2022-11-20T10:24:58.903Z,95026
2022-11-20T10:26:06.566Z,95025
2022-11-20T10:27:15.229Z,95026
2022-11-20T10:28:24.898Z,95029
2022-11-20T10:29:32.557Z,95029
2022-11-20T10:30:42.372Z,95040
2022-11-20T10:31:52.037Z,95033
2022-11-20T10:33:00.688Z,95033
2022-11-20T10:34:12.547Z,95037
2022-11-20T10:35:21.017Z,95039
2022-11-20T10:36:29.711Z,95043
2022-11-20T10:37:39.379Z,95048
2022-11-20T10:38:47.039Z,95053
2022-11-20T10:39:56.700Z,95046
2022-11-20T10:41:05.357Z,95037
2022-11-20T10:42:14.040Z,95037
2022-11-20T10:43:23.767Z,95037
2022-11-20T10:44:32.426Z,95048
2022-11-20T10:45:41.080Z,95038
2022-11-20T10:46:50.751Z,95039
2022-11-20T10:47:59.548Z,95039
2022-11-20T10:49:09.222Z,95032
2022-11-20T10:50:22.073Z,95018
2022-11-20T10:51:27.511Z,95022
2022-11-20T10:52:37.179Z,95020
2022-11-20T10:53:46.862Z,95020
2022-11-20T10:54:55.514Z,95019
2022-11-20T10:56:05.175Z,95024
2022-11-20T10:57:13.834Z,95014
2022-11-20T10:58:23.507Z,95019
2022-11-20T10:59:33.200Z,95013
2022-11-20T11:00:41.880Z,95033
2022-11-20T11:01:51.514Z,95026
2022-11-20T11:03:00.193Z,95022
2022-11-20T11:04:08.844Z,95027
2022-11-20T11:05:18.646Z,95024
2022-11-20T11:06:28.301Z,95019
2022-11-20T11:07:37.006Z,95026
2022-11-20T11:08:46.630Z,95022
2022-11-20T11:09:54.280Z,95026
2022-11-20T11:11:03.967Z,95016
2022-11-20T11:12:12.640Z,95017
2022-11-20T11:13:22.317Z,95035
2022-11-20T11:14:29.972Z,95011
2022-11-20T11:15:39.634Z,95012
2022-11-20T11:16:49.329Z,95019
2022-11-20T11:17:57.988Z,95011
2022-11-20T11:19:06.672Z,95017
2022-11-20T11:20:16.316Z,95017
2022-11-20T11:21:25.979Z,95001
2022-11-20T11:22:35.651Z,95012
2022-11-20T11:23:43.343Z,95015
2022-11-20T11:24:52.309Z,95007
2022-11-20T11:26:02.218Z,95009
2022-11-20T11:27:15.400Z,95013
2022-11-20T11:28:20.586Z,95009
2022-11-20T11:29:30.312Z,95022
2022-11-20T11:30:38.983Z,95003
2022-11-20T11:31:48.643Z,95007
2022-11-20T11:32:57.307Z,95007
2022-11-20T11:34:07.225Z,95005
2022-11-20T11:35:16.898Z,94997
2022-11-20T11:36:25.558Z,94996
2022-11-20T11:37:35.245Z,95012
2022-11-20T11:38:44.910Z,95001
2022-11-20T11:40:16.353Z,95004
2022-11-20T11:41:04.260Z,95016
2022-11-20T11:42:13.921Z,95001
2022-11-20T11:43:22.590Z,94993
2022-11-20T11:44:33.245Z,94987
2022-11-20T11:45:40.931Z,94996
2022-11-20T11:46:49.591Z,94989
2022-11-20T11:47:59.261Z,94995
2022-11-20T11:49:08.046Z,94997
2022-11-20T11:50:17.839Z,94999
2022-11-20T11:51:26.528Z,94997
2022-11-20T11:52:36.387Z,94999
2022-11-20T11:53:46.048Z,95000
2022-11-20T11:54:53.699Z,94998
2022-11-20T11:56:02.391Z,94999
2022-11-20T11:57:12.119Z,94996
2022-11-20T11:58:20.796Z,94997
2022-11-20T11:59:30.476Z,94992
2022-11-20T12:00:38.165Z,94995
2022-11-20T12:01:48.201Z,94998
2022-11-20T12:02:56.577Z,94994
2022-11-20T12:04:05.260Z,94998
2022-11-20T12:05:14.914Z,94998
2022-11-20T12:06:24.586Z,94988
2022-11-20T12:07:46.350Z,94996
2022-11-20T12:08:44.042Z,94998
2022-11-20T12:09:52.710Z,94993
2022-11-20T12:11:02.383Z,94992
2022-11-20T12:12:12.036Z,94993
2022-11-20T12:13:19.706Z,94995
2022-11-20T12:14:29.525Z,94992
2022-11-20T12:15:39.204Z,95007
2022-11-20T12:16:47.872Z,94993
2022-11-20T12:17:57.543Z,94996
2022-11-20T12:19:07.209Z,94998
2022-11-20T12:20:16.876Z,94995
2022-11-20T12:21:26.560Z,94995
2022-11-20T12:22:35.244Z,94996
2022-11-20T12:23:44.900Z,94996
2022-11-20T12:24:53.579Z,95008
2022-11-20T12:26:05.127Z,94997
2022-11-20T12:27:14.819Z,94994
2022-11-20T12:28:23.513Z,94993
2022-11-20T12:29:33.179Z,94988
2022-11-20T12:30:42.846Z,94985
2022-11-20T12:31:52.547Z,94986
2022-11-20T12:33:04.222Z,94988
2022-11-20T12:34:13.894Z,95000
2022-11-20T12:35:22.550Z,94992
2022-11-20T12:36:32.227Z,95007
2022-11-20T12:37:41.050Z,94990
2022-11-20T12:38:49.708Z,94992
2022-11-20T12:39:59.371Z,94999
2022-11-20T12:41:07.051Z,94983
2022-11-20T12:42:16.740Z,94993
2022-11-20T12:43:25.455Z,94987
2022-11-20T12:44:34.126Z,94993
2022-11-20T12:45:43.825Z,94987
2022-11-20T12:46:52.512Z,94991
2022-11-20T12:48:02.181Z,94989
2022-11-20T12:49:11.866Z,94986
2022-11-20T12:50:20.531Z,94988
2022-11-20T12:51:29.203Z,94987
2022-11-20T12:52:37.943Z,94987
2022-11-20T12:53:45.600Z,94984
2022-11-20T12:54:55.293Z,95005
2022-11-20T12:56:04.963Z,94983
2022-11-20T12:57:15.635Z,94995
2022-11-20T12:58:25.318Z,94991
2022-11-20T12:59:34.978Z,94994
2022-11-20T13:00:43.686Z,94990
2022-11-20T13:01:52.397Z,94993
2022-11-20T13:03:01.063Z,94992
2022-11-20T13:04:10.761Z,94992
2022-11-20T13:05:20.392Z,94992
2022-11-20T13:06:29.085Z,94988
2022-11-20T13:07:38.817Z,94992
2022-11-20T13:08:47.409Z,94982
2022-11-20T13:09:57.106Z,94990
2022-11-20T13:11:05.815Z,94983
2022-11-20T13:12:15.629Z,94983
2022-11-20T13:13:25.295Z,94987
2022-11-20T13:14:33.946Z,94981
2022-11-20T13:15:43.620Z,94993
2022-11-20T13:16:51.303Z,94992
2022-11-20T13:18:01.087Z,94988
2022-11-20T13:19:10.741Z,94979
2022-11-20T13:20:19.426Z,94991
2022-11-20T13:21:28.094Z,94984
2022-11-20T13:22:36.777Z,94982
2022-11-20T13:23:45.459Z,95014
2022-11-20T13:24:55.152Z,94978
2022-11-20T13:26:02.804Z,94972
2022-11-20T13:27:11.471Z,94989
2022-11-20T13:28:21.170Z,94976
2022-11-20T13:29:29.899Z,94980
2022-11-20T13:30:38.574Z,94985
2022-11-20T13:31:48.251Z,94973
2022-11-20T13:32:57.918Z,94989
2022-11-20T13:34:07.583Z,94966
2022-11-20T13:35:17.291Z,94976
2022-11-20T13:36:26.959Z,94975
2022-11-20T13:37:36.635Z,94971
2022-11-20T13:38:45.328Z,94968
2022-11-20T13:39:55.001Z,94957
2022-11-20T13:41:04.796Z,94965
2022-11-20T13:42:14.463Z,94962
2022-11-20T13:43:24.135Z,94961
2022-11-20T13:44:33.845Z,94976
2022-11-20T13:45:42.516Z,94957
2022-11-20T13:46:52.204Z,94959
2022-11-20T13:47:59.882Z,94959
2022-11-20T13:49:09.565Z,94963
2022-11-20T13:50:18.273Z,94964
2022-11-20T13:51:27.938Z,94962
2022-11-20T13:52:37.623Z,94957
2022-11-20T13:53:46.319Z,94968
2022-11-20T13:54:54.981Z,94980
2022-11-20T13:56:04.662Z,94965
2022-11-20T13:57:13.347Z,94963
2022-11-20T13:58:22.042Z,94956
2022-11-20T13:59:31.703Z,94959
2022-11-20T14:00:41.464Z,94964
2022-11-20T14:01:51.333Z,94953
2022-11-20T14:02:58.915Z,94953
2022-11-20T14:04:08.653Z,94964
2022-11-20T14:05:17.320Z,94960
2022-11-20T14:06:24.985Z,94957
2022-11-20T14:07:34.687Z,94962
2022-11-20T14:08:43.357Z,94961
2022-11-20T14:09:52.294Z,94964
2022-11-20T14:11:01.987Z,94951
2022-11-20T14:12:10.675Z,94957
2022-11-20T14:13:20.360Z,94954
2022-11-20T14:14:30.041Z,94963
2022-11-20T14:15:41.885Z,94954
2022-11-20T14:16:48.525Z,94961
2022-11-20T14:17:57.242Z,94950
2022-11-20T14:19:05.887Z,94955
2022-11-20T14:20:22.148Z,94953
2022-11-20T14:21:31.835Z,94956
2022-11-20T14:22:40.518Z,94959
2022-11-20T14:23:50.172Z,94960
2022-11-20T14:24:59.849Z,94962
2022-11-20T14:26:09.535Z,94960
2022-11-20T14:27:18.427Z,94956
2022-11-20T14:28:30.118Z,94959
2022-11-20T14:29:39.783Z,94956
2022-11-20T14:30:48.463Z,94955
2022-11-20T14:31:57.116Z,94956
2022-11-20T14:33:06.804Z,94958
2022-11-20T14:34:14.482Z,94953
2022-11-20T14:35:23.155Z,94948
2022-11-20T14:36:32.825Z,94949
2022-11-20T14:37:41.506Z,94951
2022-11-20T14:38:50.206Z,94949
2022-11-20T14:39:59.914Z,94956
2022-11-20T14:41:08.589Z,94953
2022-11-20T14:42:18.281Z,94952
2022-11-20T14:43:26.953Z,94955
2022-11-20T14:44:37.630Z,94948
2022-11-20T14:45:45.407Z,94951
2022-11-20T14:46:54.069Z,94953
2022-11-20T14:48:03.755Z,94948
2022-11-20T14:49:11.418Z,94943
2022-11-20T14:50:21.197Z,94955